sensor_id;sensor_type;location;lat;lon;timestamp;pressure;altitude;pressure_sealevel;temperature;humidity
46045;BME280;31781;54.094;13.428;2023-01-15T00:00:37;99288.16;;;9.13;85.84
46045;BME280;31781;54.094;13.428;2023-01-15T00:02:39;99293.38;;;9.14;85.33
46045;BME280;31781;54.094;13.428;2023-01-15T00:04:41;99295.59;;;9.17;85.40
46045;BME280;31781;54.094;13.428;2023-01-15T00:06:45;99308.97;;;9.19;85.01
46045;BME280;31781;54.094;13.428;2023-01-15T00:08:49;99310.63;;;9.20;85.45
46045;BME280;31781;54.094;13.428;2023-01-15T00:10:51;99304.94;;;9.21;85.68
46045;BME280;31781;54.094;13.428;2023-01-15T00:12:52;99282.75;;;9.24;85.58
46045;BME280;31781;54.094;13.428;2023-01-15T00:14:54;99297.97;;;9.25;85.17
46045;BME280;31781;54.094;13.428;2023-01-15T00:16:56;99285.47;;;9.24;85.17
46045;BME280;31781;54.094;13.428;2023-01-15T00:18:59;99298.19;;;9.24;86.18
46045;BME280;31781;54.094;13.428;2023-01-15T00:21:02;99286.06;;;9.26;85.80
46045;BME280;31781;54.094;13.428;2023-01-15T00:23:05;99284.97;;;9.27;85.61
46045;BME280;31781;54.094;13.428;2023-01-15T00:25:08;99298.69;;;9.33;85.30
46045;BME280;31781;54.094;13.428;2023-01-15T00:27:12;99278.38;;;9.35;85.40
46045;BME280;31781;54.094;13.428;2023-01-15T00:29:20;99283.00;;;9.35;85.87
46045;BME280;31781;54.094;13.428;2023-01-15T00:31:22;99289.00;;;9.37;85.82
46045;BME280;31781;54.094;13.428;2023-01-15T00:33:24;99289.84;;;9.37;85.66
46045;BME280;31781;54.094;13.428;2023-01-15T00:35:26;99282.06;;;9.41;85.50
46045;BME280;31781;54.094;13.428;2023-01-15T00:37:27;99283.72;;;9.42;85.31
46045;BME280;31781;54.094;13.428;2023-01-15T00:39:30;99279.69;;;9.44;85.75
46045;BME280;31781;54.094;13.428;2023-01-15T00:41:35;99277.81;;;9.45;85.47
46045;BME280;31781;54.094;13.428;2023-01-15T00:43:36;99286.50;;;9.47;85.66
46045;BME280;31781;54.094;13.428;2023-01-15T00:45:38;99282.75;;;9.48;85.59
46045;BME280;31781;54.094;13.428;2023-01-15T00:47:41;99277.09;;;9.49;85.97
46045;BME280;31781;54.094;13.428;2023-01-15T00:49:44;99276.84;;;9.51;86.04
46045;BME280;31781;54.094;13.428;2023-01-15T00:51:45;99283.69;;;9.53;86.30
46045;BME280;31781;54.094;13.428;2023-01-15T00:53:47;99290.75;;;9.54;86.33
46045;BME280;31781;54.094;13.428;2023-01-15T00:55:48;99294.09;;;9.56;85.97
46045;BME280;31781;54.094;13.428;2023-01-15T00:57:51;99297.38;;;9.58;86.16
46045;BME280;31781;54.094;13.428;2023-01-15T00:59:53;99290.06;;;9.59;86.08
46045;BME280;31781;54.094;13.428;2023-01-15T01:01:54;99287.91;;;9.61;86.41
46045;BME280;31781;54.094;13.428;2023-01-15T01:03:56;99291.72;;;9.60;86.40
46045;BME280;31781;54.094;13.428;2023-01-15T01:05:59;99286.63;;;9.63;85.84
46045;BME280;31781;54.094;13.428;2023-01-15T01:08:00;99298.91;;;9.66;86.28
46045;BME280;31781;54.094;13.428;2023-01-15T01:10:03;99292.63;;;9.65;85.83
46045;BME280;31781;54.094;13.428;2023-01-15T01:12:05;99283.22;;;9.68;85.96
46045;BME280;31781;54.094;13.428;2023-01-15T01:14:10;99299.25;;;9.69;85.93
46045;BME280;31781;54.094;13.428;2023-01-15T01:16:21;99303.38;;;9.72;85.69
46045;BME280;31781;54.094;13.428;2023-01-15T01:18:24;99307.16;;;9.71;86.11
46045;BME280;31781;54.094;13.428;2023-01-15T01:20:25;99308.81;;;9.72;85.90
46045;BME280;31781;54.094;13.428;2023-01-15T01:22:27;99302.31;;;9.73;85.93
46045;BME280;31781;54.094;13.428;2023-01-15T01:24:29;99302.09;;;9.74;85.69
46045;BME280;31781;54.094;13.428;2023-01-15T01:26:30;99307.25;;;9.76;86.12
46045;BME280;31781;54.094;13.428;2023-01-15T01:28:32;99302.91;;;9.75;85.62
46045;BME280;31781;54.094;13.428;2023-01-15T01:30:36;99303.25;;;9.78;85.65
46045;BME280;31781;54.094;13.428;2023-01-15T01:32:39;99313.03;;;9.79;85.55
46045;BME280;31781;54.094;13.428;2023-01-15T01:34:43;99312.25;;;9.79;86.74
46045;BME280;31781;54.094;13.428;2023-01-15T01:36:45;99317.41;;;9.81;85.96
46045;BME280;31781;54.094;13.428;2023-01-15T01:38:48;99357.69;;;9.84;85.69
46045;BME280;31781;54.094;13.428;2023-01-15T01:40:50;99394.09;;;9.83;85.55
46045;BME280;31781;54.094;13.428;2023-01-15T01:42:52;99381.78;;;9.80;84.04
46045;BME280;31781;54.094;13.428;2023-01-15T01:45:01;99389.56;;;9.76;83.42
46045;BME280;31781;54.094;13.428;2023-01-15T01:47:08;99403.63;;;9.73;81.70
46045;BME280;31781;54.094;13.428;2023-01-15T01:49:11;99402.09;;;9.66;80.38
46045;BME280;31781;54.094;13.428;2023-01-15T01:51:15;99409.53;;;9.59;79.85
46045;BME280;31781;54.094;13.428;2023-01-15T01:53:21;99404.59;;;9.56;80.55
46045;BME280;31781;54.094;13.428;2023-01-15T01:55:25;99409.31;;;9.49;79.93
46045;BME280;31781;54.094;13.428;2023-01-15T01:57:28;99400.78;;;9.45;80.10
46045;BME280;31781;54.094;13.428;2023-01-15T01:59:30;99407.97;;;9.40;79.97
46045;BME280;31781;54.094;13.428;2023-01-15T02:01:32;99407.88;;;9.35;79.91
46045;BME280;31781;54.094;13.428;2023-01-15T02:03:36;99421.31;;;9.29;80.74
46045;BME280;31781;54.094;13.428;2023-01-15T02:05:41;99408.19;;;9.26;80.74
46045;BME280;31781;54.094;13.428;2023-01-15T02:07:44;99428.09;;;9.20;80.27
46045;BME280;31781;54.094;13.428;2023-01-15T02:09:45;99435.66;;;9.18;80.12
46045;BME280;31781;54.094;13.428;2023-01-15T02:11:48;99434.47;;;9.14;81.14
46045;BME280;31781;54.094;13.428;2023-01-15T02:13:56;99437.88;;;9.10;81.18
46045;BME280;31781;54.094;13.428;2023-01-15T02:16:09;99440.00;;;9.08;81.36
46045;BME280;31781;54.094;13.428;2023-01-15T02:18:15;99445.28;;;9.03;80.27
46045;BME280;31781;54.094;13.428;2023-01-15T02:20:29;99444.69;;;9.01;80.90
46045;BME280;31781;54.094;13.428;2023-01-15T02:22:37;99452.47;;;8.97;80.48
46045;BME280;31781;54.094;13.428;2023-01-15T02:24:51;99458.59;;;8.93;80.17
46045;BME280;31781;54.094;13.428;2023-01-15T02:27:09;99459.25;;;8.88;79.48
46045;BME280;31781;54.094;13.428;2023-01-15T02:29:17;99466.66;;;8.81;78.66
46045;BME280;31781;54.094;13.428;2023-01-15T02:31:24;99468.31;;;8.82;79.09
46045;BME280;31781;54.094;13.428;2023-01-15T02:33:34;99466.75;;;8.74;79.13
46045;BME280;31781;54.094;13.428;2023-01-15T02:35:42;99467.81;;;8.73;78.52
46045;BME280;31781;54.094;13.428;2023-01-15T02:37:48;99465.09;;;8.73;78.30
46045;BME280;31781;54.094;13.428;2023-01-15T02:40:01;99452.00;;;8.70;78.43
46045;BME280;31781;54.094;13.428;2023-01-15T02:42:07;99464.13;;;8.68;78.14
46045;BME280;31781;54.094;13.428;2023-01-15T02:44:12;99461.06;;;8.64;78.11
46045;BME280;31781;54.094;13.428;2023-01-15T02:46:21;99454.19;;;8.62;77.78
46045;BME280;31781;54.094;13.428;2023-01-15T02:48:27;99463.38;;;8.61;77.60
46045;BME280;31781;54.094;13.428;2023-01-15T02:50:35;99464.44;;;8.60;77.52
46045;BME280;31781;54.094;13.428;2023-01-15T02:52:42;99459.47;;;8.57;76.60
46045;BME280;31781;54.094;13.428;2023-01-15T02:54:47;99453.44;;;8.55;76.20
46045;BME280;31781;54.094;13.428;2023-01-15T02:56:51;99450.34;;;8.51;76.42
46045;BME280;31781;54.094;13.428;2023-01-15T02:58:57;99455.78;;;8.51;77.19
46045;BME280;31781;54.094;13.428;2023-01-15T03:01:05;99441.63;;;8.49;76.82
46045;BME280;31781;54.094;13.428;2023-01-15T03:03:12;99435.38;;;8.49;77.26
46045;BME280;31781;54.094;13.428;2023-01-15T03:05:17;99441.00;;;8.47;77.21
46045;BME280;31781;54.094;13.428;2023-01-15T03:07:25;99435.00;;;8.45;76.94
46045;BME280;31781;54.094;13.428;2023-01-15T03:09:30;99438.97;;;8.43;76.80
46045;BME280;31781;54.094;13.428;2023-01-15T03:11:35;99442.78;;;8.42;76.88
46045;BME280;31781;54.094;13.428;2023-01-15T03:13:44;99431.94;;;8.42;76.73
46045;BME280;31781;54.094;13.428;2023-01-15T03:15:57;99428.59;;;8.40;77.04
46045;BME280;31781;54.094;13.428;2023-01-15T03:18:03;99434.25;;;8.38;76.58
46045;BME280;31781;54.094;13.428;2023-01-15T03:20:12;99440.94;;;8.36;75.43
46045;BME280;31781;54.094;13.428;2023-01-15T03:22:19;99449.06;;;8.36;75.56
46045;BME280;31781;54.094;13.428;2023-01-15T03:24:28;99447.44;;;8.35;75.21
46045;BME280;31781;54.094;13.428;2023-01-15T03:26:30;99449.78;;;8.31;74.74
46045;BME280;31781;54.094;13.428;2023-01-15T03:28:35;99448.94;;;8.30;75.36
46045;BME280;31781;54.094;13.428;2023-01-15T03:30:38;99446.44;;;8.29;74.99
46045;BME280;31781;54.094;13.428;2023-01-15T03:32:41;99446.44;;;8.29;75.46
46045;BME280;31781;54.094;13.428;2023-01-15T03:34:45;99455.84;;;8.26;75.04
46045;BME280;31781;54.094;13.428;2023-01-15T03:36:47;99461.25;;;8.26;75.77
46045;BME280;31781;54.094;13.428;2023-01-15T03:38:49;99461.25;;;8.26;75.87
46045;BME280;31781;54.094;13.428;2023-01-15T03:41:00;99453.34;;;8.25;75.73
46045;BME280;31781;54.094;13.428;2023-01-15T03:43:09;99440.88;;;8.24;75.70
46045;BME280;31781;54.094;13.428;2023-01-15T03:45:19;99446.50;;;8.22;75.02
46045;BME280;31781;54.094;13.428;2023-01-15T03:47:31;99461.91;;;8.22;75.19
46045;BME280;31781;54.094;13.428;2023-01-15T03:49:47;99456.50;;;8.22;75.26
46045;BME280;31781;54.094;13.428;2023-01-15T03:51:58;99468.63;;;8.19;74.83
46045;BME280;31781;54.094;13.428;2023-01-15T03:54:06;99477.81;;;8.18;75.43
46045;BME280;31781;54.094;13.428;2023-01-15T03:56:14;99467.41;;;8.15;74.67
46045;BME280;31781;54.094;13.428;2023-01-15T03:58:22;99465.75;;;8.14;74.24
46045;BME280;31781;54.094;13.428;2023-01-15T04:00:26;99468.09;;;8.11;73.96
46045;BME280;31781;54.094;13.428;2023-01-15T04:02:29;99460.16;;;8.09;73.60
46045;BME280;31781;54.094;13.428;2023-01-15T04:04:31;99461.00;;;8.10;73.71
46045;BME280;31781;54.094;13.428;2023-01-15T04:06:37;99461.25;;;8.08;74.68
46045;BME280;31781;54.094;13.428;2023-01-15T04:08:42;99465.00;;;8.07;74.98
46045;BME280;31781;54.094;13.428;2023-01-15T04:10:50;99460.41;;;8.08;74.70
46045;BME280;31781;54.094;13.428;2023-01-15T04:12:52;99449.19;;;8.04;74.62
46045;BME280;31781;54.094;13.428;2023-01-15T04:14:54;99452.72;;;8.05;74.76
46045;BME280;31781;54.094;13.428;2023-01-15T04:16:57;99454.81;;;8.03;74.49
46045;BME280;31781;54.094;13.428;2023-01-15T04:18:59;99453.41;;;8.00;74.11
46045;BME280;31781;54.094;13.428;2023-01-15T04:21:03;99454.22;;;8.01;74.66
46045;BME280;31781;54.094;13.428;2023-01-15T04:23:07;99460.47;;;8.01;75.20
46045;BME280;31781;54.094;13.428;2023-01-15T04:25:09;99452.56;;;8.00;74.66
46045;BME280;31781;54.094;13.428;2023-01-15T04:27:11;99454.91;;;7.96;73.89
46045;BME280;31781;54.094;13.428;2023-01-15T04:29:14;99453.22;;;7.95;74.72
46045;BME280;31781;54.094;13.428;2023-01-15T04:31:16;99455.94;;;7.95;74.83
46045;BME280;31781;54.094;13.428;2023-01-15T04:33:20;99458.06;;;7.93;74.89
46045;BME280;31781;54.094;13.428;2023-01-15T04:35:22;99456.19;;;7.94;74.43
46045;BME280;31781;54.094;13.428;2023-01-15T04:37:23;99444.72;;;7.92;74.44
46045;BME280;31781;54.094;13.428;2023-01-15T04:39:26;99452.00;;;7.91;74.83
46045;BME280;31781;54.094;13.428;2023-01-15T04:41:28;99454.13;;;7.89;74.81
46045;BME280;31781;54.094;13.428;2023-01-15T04:43:30;99446.00;;;7.89;74.71
46045;BME280;31781;54.094;13.428;2023-01-15T04:45:31;99456.84;;;7.89;75.29
46045;BME280;31781;54.094;13.428;2023-01-15T04:47:33;99454.13;;;7.89;75.02
46045;BME280;31781;54.094;13.428;2023-01-15T04:49:35;99458.72;;;7.89;74.93
46045;BME280;31781;54.094;13.428;2023-01-15T04:51:36;99451.25;;;7.84;74.24
46045;BME280;31781;54.094;13.428;2023-01-15T04:53:38;99459.38;;;7.84;74.65
46045;BME280;31781;54.094;13.428;2023-01-15T04:55:41;99452.34;;;7.83;75.06
46045;BME280;31781;54.094;13.428;2023-01-15T04:57:43;99447.13;;;7.81;74.15
46045;BME280;31781;54.094;13.428;2023-01-15T04:59:44;99451.72;;;7.81;74.92
46045;BME280;31781;54.094;13.428;2023-01-15T05:01:46;99448.16;;;7.80;74.33
46045;BME280;31781;54.094;13.428;2023-01-15T05:04:04;99444.03;;;7.78;74.26
46045;BME280;31781;54.094;13.428;2023-01-15T05:06:08;99453.00;;;7.78;74.78
46045;BME280;31781;54.094;13.428;2023-01-15T05:08:10;99454.28;;;7.76;74.78
46045;BME280;31781;54.094;13.428;2023-01-15T05:10:12;99441.78;;;7.75;74.74
46045;BME280;31781;54.094;13.428;2023-01-15T05:12:15;99444.50;;;7.75;74.99
46045;BME280;31781;54.094;13.428;2023-01-15T05:14:17;99437.41;;;7.74;74.90
46045;BME280;31781;54.094;13.428;2023-01-15T05:16:21;99443.88;;;7.73;74.97
46045;BME280;31781;54.094;13.428;2023-01-15T05:18:27;99433.03;;;7.73;74.88
46045;BME280;31781;54.094;13.428;2023-01-15T05:20:29;99433.28;;;7.71;74.92
46045;BME280;31781;54.094;13.428;2023-01-15T05:22:30;99435.97;;;7.71;75.06
46045;BME280;31781;54.094;13.428;2023-01-15T05:24:32;99428.91;;;7.70;74.96
46045;BME280;31781;54.094;13.428;2023-01-15T05:26:34;99421.22;;;7.67;74.83
46045;BME280;31781;54.094;13.428;2023-01-15T05:28:37;99411.22;;;7.68;74.83
46045;BME280;31781;54.094;13.428;2023-01-15T05:30:39;99431.44;;;7.65;75.00
46045;BME280;31781;54.094;13.428;2023-01-15T05:32:41;99436.84;;;7.65;75.15
46045;BME280;31781;54.094;13.428;2023-01-15T05:34:44;99421.88;;;7.63;75.12
46045;BME280;31781;54.094;13.428;2023-01-15T05:36:46;99421.69;;;7.64;75.20
46045;BME280;31781;54.094;13.428;2023-01-15T05:38:48;99412.72;;;7.64;75.55
46045;BME280;31781;54.094;13.428;2023-01-15T05:40:49;99406.69;;;7.62;74.85
46045;BME280;31781;54.094;13.428;2023-01-15T05:42:52;99397.53;;;7.63;74.72
46045;BME280;31781;54.094;13.428;2023-01-15T05:44:55;99393.59;;;7.59;74.53
46045;BME280;31781;54.094;13.428;2023-01-15T05:46:58;99396.31;;;7.59;75.15
46045;BME280;31781;54.094;13.428;2023-01-15T05:49:02;99417.13;;;7.58;74.85
46045;BME280;31781;54.094;13.428;2023-01-15T05:51:04;99425.03;;;7.60;74.89
46045;BME280;31781;54.094;13.428;2023-01-15T05:53:06;99427.75;;;7.60;74.67
46045;BME280;31781;54.094;13.428;2023-01-15T05:55:08;99445.88;;;7.59;74.69
46045;BME280;31781;54.094;13.428;2023-01-15T05:57:11;99453.78;;;7.61;74.94
46045;BME280;31781;54.094;13.428;2023-01-15T05:59:14;99447.53;;;7.60;75.03
46045;BME280;31781;54.094;13.428;2023-01-15T06:01:19;99441.28;;;7.60;74.51
46045;BME280;31781;54.094;13.428;2023-01-15T06:03:21;99444.19;;;7.58;74.25
46045;BME280;31781;54.094;13.428;2023-01-15T06:05:23;99450.44;;;7.59;74.59
46045;BME280;31781;54.094;13.428;2023-01-15T06:07:25;99445.28;;;7.57;74.86
46045;BME280;31781;54.094;13.428;2023-01-15T06:09:28;99449.63;;;7.58;74.14
46045;BME280;31781;54.094;13.428;2023-01-15T06:11:29;99451.72;;;7.56;73.99
46045;BME280;31781;54.094;13.428;2023-01-15T06:13:31;99439.88;;;7.57;73.92
46045;BME280;31781;54.094;13.428;2023-01-15T06:15:39;99440.66;;;7.58;73.87
46045;BME280;31781;54.094;13.428;2023-01-15T06:17:42;99441.94;;;7.55;74.05
46045;BME280;31781;54.094;13.428;2023-01-15T06:19:44;99440.06;;;7.56;73.79
46045;BME280;31781;54.094;13.428;2023-01-15T06:21:46;99438.78;;;7.58;73.77
46045;BME280;31781;54.094;13.428;2023-01-15T06:23:47;99443.59;;;7.56;73.23
46045;BME280;31781;54.094;13.428;2023-01-15T06:25:50;99437.97;;;7.58;73.46
46045;BME280;31781;54.094;13.428;2023-01-15T06:27:52;99437.38;;;7.56;72.82
46045;BME280;31781;54.094;13.428;2023-01-15T06:29:54;99449.22;;;7.55;72.25
46045;BME280;31781;54.094;13.428;2023-01-15T06:31:55;99441.13;;;7.55;72.39
46045;BME280;31781;54.094;13.428;2023-01-15T06:33:58;99442.97;;;7.54;71.88
46045;BME280;31781;54.094;13.428;2023-01-15T06:36:02;99453.81;;;7.54;71.81
46045;BME280;31781;54.094;13.428;2023-01-15T06:38:04;99456.31;;;7.56;71.98
46045;BME280;31781;54.094;13.428;2023-01-15T06:40:06;99463.59;;;7.55;71.96
46045;BME280;31781;54.094;13.428;2023-01-15T06:42:08;99471.13;;;7.53;71.67
46045;BME280;31781;54.094;13.428;2023-01-15T06:44:11;99467.59;;;7.53;71.08
46045;BME280;31781;54.094;13.428;2023-01-15T06:46:15;99468.41;;;7.53;71.00
46045;BME280;31781;54.094;13.428;2023-01-15T06:48:17;99464.88;;;7.53;70.87
46045;BME280;31781;54.094;13.428;2023-01-15T06:50:20;99456.97;;;7.51;71.08
46045;BME280;31781;54.094;13.428;2023-01-15T06:52:23;99453.22;;;7.52;71.49
46045;BME280;31781;54.094;13.428;2023-01-15T06:54:25;99462.63;;;7.50;70.83
46045;BME280;31781;54.094;13.428;2023-01-15T06:56:27;99476.56;;;7.47;70.20
46045;BME280;31781;54.094;13.428;2023-01-15T06:58:28;99479.50;;;7.45;70.56
46045;BME280;31781;54.094;13.428;2023-01-15T07:00:30;99485.13;;;7.44;70.88
46045;BME280;31781;54.094;13.428;2023-01-15T07:02:32;99482.41;;;7.44;70.74
46045;BME280;31781;54.094;13.428;2023-01-15T07:04:33;99461.00;;;7.42;70.91
46045;BME280;31781;54.094;13.428;2023-01-15T07:06:36;99469.34;;;7.41;70.28
46045;BME280;31781;54.094;13.428;2023-01-15T07:08:38;99464.97;;;7.40;70.09
46045;BME280;31781;54.094;13.428;2023-01-15T07:10:40;99469.16;;;7.35;70.74
46045;BME280;31781;54.094;13.428;2023-01-15T07:12:41;99479.97;;;7.35;70.71
46045;BME280;31781;54.094;13.428;2023-01-15T07:14:45;99483.50;;;7.36;70.58
46045;BME280;31781;54.094;13.428;2023-01-15T07:16:48;99489.16;;;7.34;70.82
46045;BME280;31781;54.094;13.428;2023-01-15T07:18:49;99499.59;;;7.31;70.44
46045;BME280;31781;54.094;13.428;2023-01-15T07:20:53;99496.88;;;7.31;70.74
46045;BME280;31781;54.094;13.428;2023-01-15T07:22:56;99497.94;;;7.30;70.45
46045;BME280;31781;54.094;13.428;2023-01-15T07:24:58;99485.69;;;7.27;70.95
46045;BME280;31781;54.094;13.428;2023-01-15T07:27:00;99489.41;;;7.26;70.66
46045;BME280;31781;54.094;13.428;2023-01-15T07:29:02;99493.16;;;7.25;71.20
46045;BME280;31781;54.094;13.428;2023-01-15T07:31:04;99494.44;;;7.23;70.54
46045;BME280;31781;54.094;13.428;2023-01-15T07:33:05;99495.91;;;7.19;70.20
46045;BME280;31781;54.094;13.428;2023-01-15T07:35:07;99493.84;;;7.14;69.83
46045;BME280;31781;54.094;13.428;2023-01-15T07:37:09;99495.28;;;7.17;69.89
46045;BME280;31781;54.094;13.428;2023-01-15T07:39:13;99505.50;;;7.15;70.42
46045;BME280;31781;54.094;13.428;2023-01-15T07:41:15;99500.94;;;7.15;70.60
46045;BME280;31781;54.094;13.428;2023-01-15T07:43:17;99499.06;;;7.16;71.15
46045;BME280;31781;54.094;13.428;2023-01-15T07:45:20;99506.34;;;7.15;70.79
46045;BME280;31781;54.094;13.428;2023-01-15T07:47:25;99498.44;;;7.14;70.83
46045;BME280;31781;54.094;13.428;2023-01-15T07:49:27;99485.34;;;7.11;70.00
46045;BME280;31781;54.094;13.428;2023-01-15T07:51:28;99496.41;;;7.09;69.74
46045;BME280;31781;54.094;13.428;2023-01-15T07:53:30;99499.91;;;7.10;70.08
46045;BME280;31781;54.094;13.428;2023-01-15T07:55:34;99518.03;;;7.09;69.84
46045;BME280;31781;54.094;13.428;2023-01-15T07:57:36;99522.63;;;7.09;70.10
46045;BME280;31781;54.094;13.428;2023-01-15T07:59:38;99508.47;;;7.07;70.63
46045;BME280;31781;54.094;13.428;2023-01-15T08:01:39;99507.44;;;7.08;70.93
46045;BME280;31781;54.094;13.428;2023-01-15T08:03:41;99516.38;;;7.08;70.46
46045;BME280;31781;54.094;13.428;2023-01-15T08:05:43;99514.94;;;7.06;70.01
46045;BME280;31781;54.094;13.428;2023-01-15T08:07:44;99513.03;;;7.06;70.16
46045;BME280;31781;54.094;13.428;2023-01-15T08:09:46;99500.34;;;7.07;70.41
46045;BME280;31781;54.094;13.428;2023-01-15T08:11:49;99512.63;;;7.03;69.75
46045;BME280;31781;54.094;13.428;2023-01-15T08:13:51;99518.06;;;7.03;69.98
46045;BME280;31781;54.094;13.428;2023-01-15T08:15:53;99512.63;;;7.03;70.25
46045;BME280;31781;54.094;13.428;2023-01-15T08:17:54;99527.22;;;7.02;70.31
46045;BME280;31781;54.094;13.428;2023-01-15T08:19:56;99518.06;;;7.03;70.47
46045;BME280;31781;54.094;13.428;2023-01-15T08:21:58;99514.94;;;6.99;70.44
46045;BME280;31781;54.094;13.428;2023-01-15T08:24:00;99511.22;;;7.00;71.15
46045;BME280;31781;54.094;13.428;2023-01-15T08:26:01;99512.88;;;7.01;71.00
46045;BME280;31781;54.094;13.428;2023-01-15T08:28:04;99516.41;;;7.02;71.40
46045;BME280;31781;54.094;13.428;2023-01-15T08:30:09;99509.94;;;7.03;70.94
46045;BME280;31781;54.094;13.428;2023-01-15T08:32:11;99500.19;;;7.02;71.50
46045;BME280;31781;54.094;13.428;2023-01-15T08:34:12;99507.22;;;7.03;71.00
46045;BME280;31781;54.094;13.428;2023-01-15T08:36:14;99505.38;;;7.03;71.45
46045;BME280;31781;54.094;13.428;2023-01-15T08:38:16;99510.56;;;7.05;72.00
46045;BME280;31781;54.094;13.428;2023-01-15T08:40:18;99511.59;;;7.04;71.94
46045;BME280;31781;54.094;13.428;2023-01-15T08:42:20;99511.41;;;7.05;72.28
46045;BME280;31781;54.094;13.428;2023-01-15T08:44:23;99518.69;;;7.05;72.08
46045;BME280;31781;54.094;13.428;2023-01-15T08:46:25;99519.72;;;7.04;71.87
46045;BME280;31781;54.094;13.428;2023-01-15T08:48:28;99512.44;;;7.04;71.73
46045;BME280;31781;54.094;13.428;2023-01-15T08:50:30;99518.44;;;7.06;72.17
46045;BME280;31781;54.094;13.428;2023-01-15T08:52:32;99518.44;;;7.06;72.26
46045;BME280;31781;54.094;13.428;2023-01-15T08:54:33;99518.44;;;7.06;71.70
46045;BME280;31781;54.094;13.428;2023-01-15T08:56:35;99521.97;;;7.07;72.22
46045;BME280;31781;54.094;13.428;2023-01-15T08:58:37;99526.56;;;7.06;72.27
46045;BME280;31781;54.094;13.428;2023-01-15T09:00:40;99517.22;;;7.09;71.88
46045;BME280;31781;54.094;13.428;2023-01-15T09:02:42;99516.13;;;7.10;71.70
46045;BME280;31781;54.094;13.428;2023-01-15T09:04:44;99527.19;;;7.08;71.43
46045;BME280;31781;54.094;13.428;2023-01-15T09:06:46;99517.22;;;7.09;72.04
46045;BME280;31781;54.094;13.428;2023-01-15T09:08:48;99524.06;;;7.11;71.79
46045;BME280;31781;54.094;13.428;2023-01-15T09:10:50;99522.19;;;7.12;71.72
46045;BME280;31781;54.094;13.428;2023-01-15T09:12:52;99528.41;;;7.12;72.57
46045;BME280;31781;54.094;13.428;2023-01-15T09:14:53;99531.97;;;7.13;72.35
46045;BME280;31781;54.094;13.428;2023-01-15T09:17:08;99523.84;;;7.13;72.14
46045;BME280;31781;54.094;13.428;2023-01-15T09:19:10;99507.63;;;7.13;71.81
46045;BME280;31781;54.094;13.428;2023-01-15T09:21:11;99524.66;;;7.13;71.69
46045;BME280;31781;54.094;13.428;2023-01-15T09:23:13;99548.19;;;7.13;71.61
46045;BME280;31781;54.094;13.428;2023-01-15T09:25:15;99518.00;;;7.16;72.22
46045;BME280;31781;54.094;13.428;2023-01-15T09:27:17;99514.66;;;7.14;71.64
46045;BME280;31781;54.094;13.428;2023-01-15T09:29:19;99519.88;;;7.15;71.30
46045;BME280;31781;54.094;13.428;2023-01-15T09:31:21;99533.38;;;7.15;71.55
46045;BME280;31781;54.094;13.428;2023-01-15T09:33:24;99522.34;;;7.17;72.14
46045;BME280;31781;54.094;13.428;2023-01-15T09:35:25;99515.69;;;7.19;71.33
46045;BME280;31781;54.094;13.428;2023-01-15T09:37:27;99509.44;;;7.19;71.82
46045;BME280;31781;54.094;13.428;2023-01-15T09:39:29;99515.44;;;7.21;71.52
46045;BME280;31781;54.094;13.428;2023-01-15T09:41:39;99515.44;;;7.21;71.79
46045;BME280;31781;54.094;13.428;2023-01-15T09:43:55;99510.66;;;7.23;71.15
46045;BME280;31781;54.094;13.428;2023-01-15T09:46:02;99510.44;;;7.24;71.11
46045;BME280;31781;54.094;13.428;2023-01-15T09:48:38;99523.56;;;7.27;71.25
46045;BME280;31781;54.094;13.428;2023-01-15T09:50:54;99533.53;;;7.27;71.71
46045;BME280;31781;54.094;13.428;2023-01-15T09:53:14;99522.72;;;7.27;71.41
46045;BME280;31781;54.094;13.428;2023-01-15T09:55:19;99514.81;;;7.25;71.35
46045;BME280;31781;54.094;13.428;2023-01-15T09:57:23;99509.19;;;7.27;71.44
46045;BME280;31781;54.094;13.428;2023-01-15T09:59:30;99512.09;;;7.25;71.14
46045;BME280;31781;54.094;13.428;2023-01-15T10:01:37;99511.06;;;7.26;71.15
46045;BME280;31781;54.094;13.428;2023-01-15T10:03:42;99506.25;;;7.28;71.31
46045;BME280;31781;54.094;13.428;2023-01-15T10:05:49;99495.66;;;7.27;70.61
46045;BME280;31781;54.094;13.428;2023-01-15T10:07:57;99497.31;;;7.28;71.08
46045;BME280;31781;54.094;13.428;2023-01-15T10:10:04;99499.19;;;7.27;70.52
46045;BME280;31781;54.094;13.428;2023-01-15T10:12:13;99497.31;;;7.28;70.89
46045;BME280;31781;54.094;13.428;2023-01-15T10:14:29;99492.72;;;7.28;70.64
46045;BME280;31781;54.094;13.428;2023-01-15T10:16:32;99494.38;;;7.29;70.91
46045;BME280;31781;54.094;13.428;2023-01-15T10:18:34;99506.03;;;7.30;70.46
46045;BME280;31781;54.094;13.428;2023-01-15T10:20:48;99503.13;;;7.31;71.03
46045;BME280;31781;54.094;13.428;2023-01-15T10:23:12;99505.59;;;7.33;70.30
46045;BME280;31781;54.094;13.428;2023-01-15T10:25:22;99504.75;;;7.32;71.28
46045;BME280;31781;54.094;13.428;2023-01-15T10:27:29;99516.44;;;7.33;70.95
46045;BME280;31781;54.094;13.428;2023-01-15T10:29:44;99512.44;;;7.35;70.72
46045;BME280;31781;54.094;13.428;2023-01-15T10:31:53;99500.19;;;7.33;71.01
46045;BME280;31781;54.094;13.428;2023-01-15T10:34:07;99510.38;;;7.38;71.05
46045;BME280;31781;54.094;13.428;2023-01-15T10:36:21;99508.50;;;7.38;70.74
46045;BME280;31781;54.094;13.428;2023-01-15T10:38:42;99508.88;;;7.42;71.24
46045;BME280;31781;54.094;13.428;2023-01-15T10:41:11;99508.66;;;7.43;71.40
46045;BME280;31781;54.094;13.428;2023-01-15T10:43:19;99512.19;;;7.44;71.02
46045;BME280;31781;54.094;13.428;2023-01-15T10:45:23;99505.53;;;7.40;69.36
46045;BME280;31781;54.094;13.428;2023-01-15T10:47:31;99505.94;;;7.43;70.62
46045;BME280;31781;54.094;13.428;2023-01-15T10:49:35;99495.94;;;7.44;70.02
46045;BME280;31781;54.094;13.428;2023-01-15T10:51:41;99486.78;;;7.45;70.11
46045;BME280;31781;54.094;13.428;2023-01-15T10:53:48;99495.50;;;7.47;70.14
46045;BME280;31781;54.094;13.428;2023-01-15T10:55:56;99488.66;;;7.44;69.85
46045;BME280;31781;54.094;13.428;2023-01-15T10:58:03;99489.06;;;7.48;69.72